createdAt,value
2022-10-01T00:03:03.634Z,3.22
2022-10-01T00:08:05.160Z,4.03
2022-10-01T00:13:06.634Z,3.92
2022-10-01T00:18:09.682Z,3.50
2022-10-01T00:23:11.981Z,3.25
2022-10-01T00:28:13.588Z,3.47
2022-10-01T00:33:15.133Z,3.55
2022-10-01T00:38:16.628Z,4.63
2022-10-01T00:43:20.373Z,4.18
2022-10-01T00:48:22.349Z,3.85
2022-10-01T00:53:23.815Z,3.92
2022-10-01T00:58:25.315Z,4.78
2022-10-01T01:03:26.813Z,4.28
2022-10-01T01:08:29.335Z,3.28
2022-10-01T01:18:54.492Z,4.22
2022-10-01T01:24:03.889Z,4.35
2022-10-01T01:29:11.225Z,4.68
2022-10-01T01:34:14.073Z,4.43
2022-10-01T01:39:15.559Z,3.88
2022-10-01T01:44:18.274Z,4.35
2022-10-01T01:49:20.750Z,4.13
2022-10-01T01:54:22.265Z,4.72
2022-10-01T01:59:24.085Z,3.72
2022-10-01T02:04:31.488Z,4.25
2022-10-01T02:09:40.124Z,3.75
2022-10-01T02:14:52.611Z,4.65
2022-10-01T02:19:57.606Z,3.63
2022-10-01T02:24:59.954Z,5.80
2022-10-01T02:30:04.293Z,5.10
2022-10-01T02:35:10.465Z,4.75
2022-10-01T02:40:15.890Z,4.60
2022-10-01T02:45:19.526Z,5.32
2022-10-01T02:50:23.137Z,5.57
2022-10-01T02:55:28.683Z,5.13
2022-10-01T03:00:30.220Z,5.30
2022-10-01T03:05:31.693Z,6.28
2022-10-01T03:10:33.672Z,5.32
2022-10-01T03:15:35.210Z,5.93
2022-10-01T03:20:36.759Z,5.95
2022-10-01T03:25:39.027Z,6.60
2022-10-01T03:30:40.505Z,5.20
2022-10-01T03:35:41.978Z,4.93
2022-10-01T03:40:43.869Z,5.78
2022-10-01T03:45:45.454Z,5.07
2022-10-01T03:50:57.314Z,5.45
2022-10-01T03:55:59.338Z,6.13
2022-10-01T04:01:00.851Z,5.72
2022-10-01T04:06:02.342Z,5.85
2022-10-01T04:11:04.167Z,6.05
2022-10-01T04:16:06.857Z,4.55
2022-10-01T04:21:08.394Z,4.05
2022-10-01T04:26:09.899Z,4.55
2022-10-01T04:31:26.481Z,4.60
2022-10-01T04:36:28.051Z,5.25
2022-10-01T04:41:30.635Z,5.05
2022-10-01T04:46:32.547Z,5.85
2022-10-01T04:51:34.235Z,4.70
2022-10-01T04:56:35.960Z,5.15
2022-10-01T05:01:37.970Z,4.90
2022-10-01T05:06:41.266Z,5.38
2022-10-01T05:11:42.732Z,3.75
2022-10-01T05:16:44.247Z,1.88
2022-10-01T05:21:46.168Z,2.58
2022-10-01T05:26:47.647Z,2.90
2022-10-01T05:31:49.379Z,2.42
2022-10-01T05:36:50.913Z,2.80
2022-10-01T05:41:55.397Z,1.80
2022-10-01T05:46:57.928Z,2.60
2022-10-01T05:52:01.023Z,2.63
2022-10-01T05:57:02.595Z,3.30
2022-10-01T06:02:04.311Z,2.58
2022-10-01T06:07:05.940Z,2.28
2022-10-01T06:12:08.560Z,2.58
2022-10-01T06:17:10.025Z,1.90
2022-10-01T06:22:11.491Z,2.17
2022-10-01T06:27:12.961Z,1.55
2022-10-01T06:32:19.614Z,2.08
2022-10-01T06:37:21.092Z,1.90
2022-10-01T06:42:22.609Z,2.13
2022-10-01T06:47:24.119Z,1.90
2022-10-01T06:52:43.873Z,1.98
2022-10-01T06:57:45.673Z,2.42
2022-10-01T07:02:47.196Z,2.25
2022-10-01T07:07:49.070Z,1.77
2022-10-01T07:12:50.765Z,2.15
2022-10-01T07:17:52.370Z,1.70
2022-10-01T07:22:57.575Z,1.98
2022-10-01T07:28:00.777Z,1.70
2022-10-01T07:33:02.275Z,2.22
2022-10-01T07:38:07.344Z,2.13
2022-10-01T07:43:08.883Z,2.17
2022-10-01T07:48:10.365Z,2.35
2022-10-01T07:53:11.922Z,2.50
2022-10-01T07:58:13.431Z,3.30
2022-10-01T08:03:14.909Z,2.53
2022-10-01T08:08:16.385Z,2.42
2022-10-01T08:13:17.947Z,2.90
2022-10-01T08:18:20.191Z,2.97
2022-10-01T08:23:21.667Z,2.40
2022-10-01T08:28:23.194Z,2.75
2022-10-01T08:33:24.771Z,2.40
2022-10-01T08:38:26.234Z,3.03
2022-10-01T08:43:33.004Z,2.63
2022-10-01T08:48:58.610Z,3.20
2022-10-01T08:54:24.241Z,2.55
2022-10-01T08:59:48.726Z,2.33
2022-10-01T09:05:04.535Z,2.13
2022-10-01T09:10:43.420Z,2.15
2022-10-01T09:15:57.804Z,1.98
2022-10-01T09:20:59.277Z,3.50
2022-10-01T09:26:00.748Z,1.80
2022-10-01T09:31:37.407Z,2.30
2022-10-01T09:37:06.755Z,2.60
2022-10-01T09:42:08.280Z,2.22
2022-10-01T09:47:20.201Z,1.58
2022-10-01T09:52:48.716Z,1.70
2022-10-01T09:57:56.288Z,2.50
2022-10-01T10:02:57.919Z,2.47
2022-10-01T10:08:00.300Z,2.13
2022-10-01T10:18:06.809Z,1.63
2022-10-01T10:23:11.731Z,2.28
2022-10-01T10:28:23.620Z,2.50
2022-10-01T10:33:26.287Z,1.77
2022-10-01T10:38:30.630Z,1.98
2022-10-01T10:43:36.413Z,1.45
2022-10-01T10:48:43.418Z,1.40
2022-10-01T10:53:45.609Z,1.67
2022-10-01T10:58:47.100Z,2.20
2022-10-01T11:03:50.154Z,2.40
2022-10-01T11:08:59.803Z,2.05
2022-10-01T11:14:24.002Z,2.33
2022-10-01T11:19:44.038Z,1.67
2022-10-01T11:25:18.359Z,1.67
2022-10-01T11:30:24.922Z,1.42
2022-10-01T11:35:34.332Z,2.05
2022-10-01T11:40:39.402Z,1.90
2022-10-01T11:45:43.574Z,1.05
2022-10-01T11:50:46.843Z,1.10
2022-10-01T11:56:15.320Z,0.98
2022-10-01T12:01:38.381Z,1.00
2022-10-01T12:06:50.587Z,1.05
2022-10-01T12:12:02.429Z,1.33
2022-10-01T12:17:19.501Z,1.63
2022-10-01T12:22:25.797Z,1.10
2022-10-01T12:27:42.071Z,1.30
2022-10-01T12:33:04.898Z,1.75
2022-10-01T12:38:09.173Z,1.83
2022-10-01T12:43:25.120Z,1.50
2022-10-01T12:48:32.736Z,1.35
2022-10-01T12:53:48.764Z,1.02
2022-10-01T12:58:54.948Z,1.42
2022-10-01T13:04:19.458Z,1.90
2022-10-01T13:09:33.645Z,0.90
2022-10-01T13:14:35.130Z,1.35
2022-10-01T13:19:42.521Z,1.85
2022-10-01T13:25:02.348Z,1.50
2022-10-01T13:30:16.206Z,1.20
2022-10-01T13:35:39.381Z,1.75
2022-10-01T13:40:40.891Z,1.27
2022-10-01T13:45:43.831Z,1.20
2022-10-01T13:50:57.122Z,1.38
2022-10-01T13:55:58.793Z,1.30
2022-10-01T14:01:03.352Z,1.98
2022-10-01T14:06:14.485Z,1.45
2022-10-01T14:11:36.821Z,1.40
2022-10-01T14:16:44.306Z,1.20
2022-10-01T14:22:03.047Z,3.05
2022-10-01T14:27:22.463Z,1.50
2022-10-01T14:33:05.143Z,1.55
2022-10-01T14:38:19.121Z,2.22
2022-10-01T14:43:24.902Z,2.22
2022-10-01T14:48:28.745Z,2.20
2022-10-01T14:53:32.762Z,1.50
2022-10-01T14:58:36.987Z,1.83
2022-10-01T15:03:39.237Z,1.75
2022-10-01T15:13:46.577Z,1.30
2022-10-01T15:23:50.275Z,1.95
2022-10-01T15:29:03.353Z,1.95
2022-10-01T15:34:05.271Z,1.98
2022-10-01T15:39:40.935Z,1.58
2022-10-01T15:44:46.392Z,2.05
2022-10-01T15:50:20.767Z,1.75
2022-10-01T16:00:32.045Z,2.15
2022-10-01T16:05:44.530Z,2.50
2022-10-01T16:10:46.018Z,1.98
2022-10-01T16:16:07.903Z,1.50
2022-10-01T16:21:10.496Z,1.60
2022-10-01T16:26:27.185Z,1.83
2022-10-01T16:31:29.432Z,1.65
2022-10-01T16:36:31.028Z,1.92
2022-10-01T16:41:33.776Z,2.13
2022-10-01T16:46:35.550Z,1.45
2022-10-01T16:51:37.335Z,1.70
2022-10-01T16:56:41.246Z,1.63
2022-10-01T17:01:43.380Z,1.80
2022-10-01T17:06:44.932Z,1.30
2022-10-01T17:11:46.396Z,1.42
2022-10-01T17:16:48.341Z,1.65
2022-10-01T17:21:49.917Z,1.88
2022-10-01T17:26:51.448Z,1.75
2022-10-01T17:31:53.287Z,1.85
2022-10-01T17:36:54.950Z,1.35
2022-10-01T17:41:56.414Z,1.90
2022-10-01T17:46:57.907Z,1.98
2022-10-01T17:51:59.387Z,2.15
2022-10-01T17:57:00.885Z,2.95
2022-10-01T18:02:13.935Z,1.65
2022-10-01T18:07:24.438Z,2.13
2022-10-01T18:12:25.961Z,1.92
2022-10-01T18:17:27.475Z,1.35
2022-10-01T18:22:28.987Z,3.38
2022-10-01T18:27:30.616Z,1.55
2022-10-01T18:32:36.284Z,1.85
2022-10-01T18:37:53.182Z,1.83
2022-10-01T18:43:17.781Z,1.63
2022-10-01T18:48:49.952Z,2.03
2022-10-01T18:54:23.502Z,1.50
2022-10-01T18:59:29.812Z,1.63
2022-10-01T19:04:47.326Z,2.90
2022-10-01T19:09:57.450Z,1.52
2022-10-01T19:15:19.823Z,1.52
2022-10-01T19:20:46.087Z,1.30
2022-10-01T19:26:04.155Z,0.95
2022-10-01T19:31:35.422Z,1.30
2022-10-01T19:36:39.020Z,1.65
2022-10-01T19:41:44.333Z,1.80
2022-10-01T19:46:47.173Z,2.47
2022-10-01T19:51:57.312Z,2.00
2022-10-01T19:57:25.690Z,1.63
2022-10-01T20:02:45.732Z,1.85
2022-10-01T20:07:52.949Z,2.28
2022-10-01T20:13:09.304Z,1.85
2022-10-01T20:18:27.731Z,2.38
2022-10-01T20:23:44.533Z,2.15
2022-10-01T20:29:09.868Z,1.73
2022-10-01T20:34:37.138Z,2.38
2022-10-01T20:39:50.330Z,1.65
2022-10-01T20:44:52.193Z,2.03
2022-10-01T20:50:00.896Z,2.08
2022-10-01T20:55:08.258Z,2.00
2022-10-01T21:00:26.771Z,2.30
2022-10-01T21:05:30.094Z,2.35
2022-10-01T21:10:46.495Z,1.88
2022-10-01T21:16:14.158Z,2.50
2022-10-01T21:21:18.327Z,2.10
2022-10-01T21:26:22.640Z,2.60
2022-10-01T21:31:33.322Z,1.42
2022-10-01T21:36:38.780Z,1.45
2022-10-01T21:41:53.643Z,2.42
2022-10-01T21:47:14.562Z,3.05
2022-10-01T21:52:34.537Z,2.28
2022-10-01T21:58:01.590Z,2.15
2022-10-01T22:03:20.280Z,3.42
2022-10-01T22:08:24.706Z,2.88
2022-10-01T22:13:29.129Z,1.77
2022-10-01T22:18:43.378Z,2.35
2022-10-01T22:23:50.093Z,1.45
2022-10-01T22:28:52.974Z,1.90
2022-10-01T22:33:57.352Z,2.13
2022-10-01T22:39:07.900Z,2.22
2022-10-01T22:44:16.620Z,1.98
2022-10-01T22:49:45.234Z,1.60
2022-10-01T22:55:10.822Z,1.80
2022-10-01T23:00:13.280Z,1.60
2022-10-01T23:05:26.919Z,1.90
2022-10-01T23:10:34.270Z,1.90
2022-10-01T23:15:41.602Z,1.73
2022-10-01T23:21:06.387Z,1.30
2022-10-01T23:26:32.588Z,2.15
2022-10-01T23:32:02.786Z,2.42
2022-10-01T23:37:30.606Z,2.08
2022-10-01T23:42:35.827Z,2.90
2022-10-01T23:47:43.843Z,2.17
2022-10-01T23:52:58.077Z,2.88
2022-10-01T23:58:03.162Z,2.63
